Time;durP1;ratioP1;P1;durP2;ratioP2;P2;SDS_P1;SDS_P2;PMS_P1;PMS_P2;Temp;Humidity;BMP_temperature;BMP_pressure;BME280_temperature;BME280_humidity;BME280_pressure;Samples;Min_cycle;Max_cycle;Signal;HPM_P1;HPM_P2
2023/08/28 06:09:37;;;;;;;2.80;2.37;;;;;;;23.91;100.00;99334.56;5584409;32;208481;-85
2023/08/28 06:12:42;;;;;;;3.33;2.60;;;;;;;23.91;100.00;99334.56;5570247;32;33732;-84
2023/08/28 06:15:44;;;;;;;4.25;3.40;;;;;;;23.85;100.00;99348.88;5570393;32;33592;-84
2023/08/28 06:18:47;;;;;;;4.10;2.90;;;;;;;24.07;100.00;99352.50;5569497;32;33883;-84
2023/08/28 06:21:50;;;;;;;5.12;3.28;;;;;;;24.46;100.00;99352.28;5569995;32;34092;-84
2023/08/28 06:24:52;;;;;;;5.50;3.47;;;;;;;24.29;100.00;99352.53;5570077;32;33979;-85
2023/08/28 06:27:55;;;;;;;5.37;3.37;;;;;;;25.12;100.00;99345.81;5571083;32;34102;-84
2023/08/28 06:30:58;;;;;;;2.90;2.70;;;;;;;25.56;100.00;99337.56;5570269;32;33643;-84
2023/08/28 06:34:01;;;;;;;3.30;2.92;;;;;;;25.34;100.00;99342.22;5569714;32;34052;-84
2023/08/28 06:37:04;;;;;;;3.42;3.12;;;;;;;25.90;100.00;99335.00;5569927;32;33771;-84
2023/08/28 06:40:08;;;;;;;3.50;2.92;;;;;;;26.71;100.00;99333.34;5569805;32;33603;-84
2023/08/28 06:43:11;;;;;;;4.93;3.33;;;;;;;26.01;100.00;99341.72;5569850;32;33380;-84
2023/08/28 06:46:15;;;;;;;3.47;2.83;;;;;;;26.29;100.00;99335.38;5569328;32;34245;-85
2023/08/28 06:49:18;;;;;;;4.95;3.40;;;;;;;26.50;100.00;99337.09;5569592;32;34712;-84
2023/08/28 06:52:20;;;;;;;4.32;3.62;;;;;;;27.48;100.00;99332.06;5576861;32;33860;-84
2023/08/28 06:55:25;;;;;;;3.62;3.30;;;;;;;28.00;95.76;99325.81;5571936;32;35100;-84
2023/08/28 06:58:27;;;;;;;3.28;2.87;;;;;;;28.41;91.96;99320.16;5569181;32;33913;-84
2023/08/28 07:01:31;;;;;;;4.53;3.42;;;;;;;28.51;93.20;99320.53;5569124;32;33499;-84
2023/08/28 07:04:33;;;;;;;3.97;3.50;;;;;;;27.95;95.66;99317.47;5573441;32;34048;-84
2023/08/28 07:07:36;;;;;;;4.45;3.67;;;;;;;28.20;95.67;99322.16;5572232;32;33724;-84
2023/08/28 07:10:39;;;;;;;4.00;3.10;;;;;;;27.87;96.60;99312.25;5555232;32;34089;-83
2023/08/28 07:13:42;;;;;;;3.55;3.20;;;;;;;27.56;98.47;99318.19;5556458;32;34782;-83
2023/08/28 07:16:44;;;;;;;4.22;3.50;;;;;;;27.42;100.00;99311.97;5555898;32;33526;-84
2023/08/28 07:19:47;;;;;;;3.33;3.05;;;;;;;27.17;100.00;99306.34;5555894;32;33634;-85
2023/08/28 07:22:53;;;;;;;4.12;3.40;;;;;;;27.11;100.00;99299.03;5556260;32;34823;-85
2023/08/28 07:25:58;;;;;;;4.07;3.33;;;;;;;26.44;100.00;99297.97;5557480;32;34072;-85
2023/08/28 07:29:02;;;;;;;4.35;3.50;;;;;;;27.15;100.00;99292.13;5556006;32;34076;-85
2023/08/28 07:32:05;;;;;;;4.20;3.70;;;;;;;27.39;99.49;99292.47;5556746;32;36466;-84
2023/08/28 07:35:08;;;;;;;4.22;3.17;;;;;;;28.24;94.48;99291.53;5556185;32;34764;-84
2023/08/28 07:38:11;;;;;;;3.28;2.97;;;;;;;28.72;92.72;99283.84;5557135;32;35069;-85
2023/08/28 07:41:13;;;;;;;3.28;2.97;;;;;;;28.92;90.69;99277.41;5559536;32;34164;-85
2023/08/28 07:44:17;;;;;;;4.72;3.62;;;;;;;28.77;92.47;99275.00;5563931;32;34599;-85
2023/08/28 07:47:20;;;;;;;3.90;3.50;;;;;;;28.50;92.64;99277.91;5563489;32;33602;-85
2023/08/28 07:50:23;;;;;;;4.03;3.55;;;;;;;28.65;91.97;99285.78;5556215;32;34115;-85
2023/08/28 07:53:25;;;;;;;4.43;3.30;;;;;;;28.85;88.71;99280.16;5555896;32;33902;-85
2023/08/28 07:56:28;;;;;;;4.30;3.58;;;;;;;28.60;92.98;99282.91;5555919;32;34035;-85
2023/08/28 07:59:31;;;;;;;3.97;3.50;;;;;;;29.03;90.20;99290.31;5555482;32;33743;-88
2023/08/28 08:02:34;;;;;;;3.42;2.97;;;;;;;29.12;89.39;99293.56;5555497;32;33899;-89
2023/08/28 08:05:37;;;;;;;3.70;3.30;;;;;;;29.36;89.18;99295.66;5555879;32;33338;-89
2023/08/28 08:08:39;;;;;;;3.90;3.50;;;;;;;29.16;89.44;99296.72;5556374;32;34421;-85
2023/08/28 08:11:42;;;;;;;4.57;3.37;;;;;;;29.22;88.92;99294.97;5556125;32;34105;-85
2023/08/28 08:14:45;;;;;;;3.58;3.25;;;;;;;28.65;91.15;99299.41;5555554;32;34983;-85
2023/08/28 08:17:48;;;;;;;3.97;3.58;;;;;;;28.22;95.32;99290.91;5555798;32;35186;-85
2023/08/28 08:20:51;;;;;;;4.70;3.42;;;;;;;28.42;93.26;99289.09;5554775;32;33817;-85
2023/08/28 08:23:55;;;;;;;3.90;3.40;;;;;;;28.53;91.39;99282.94;5555059;32;34107;-85
2023/08/28 08:26:58;;;;;;;3.95;3.58;;;;;;;28.88;89.51;99278.91;5555819;32;33968;-85
2023/08/28 08:30:00;;;;;;;4.75;3.67;;;;;;;29.24;88.31;99258.16;5556170;32;34039;-85
2023/08/28 08:33:04;;;;;;;4.55;4.10;;;;;;;29.18;90.94;99250.88;5556555;32;34004;-85
2023/08/28 08:36:07;;;;;;;4.50;3.72;;;;;;;29.33;89.05;99248.59;5556072;32;34230;-85
2023/08/28 08:39:10;;;;;;;5.45;3.55;;;;;;;29.02;89.75;99244.94;5554802;32;34559;-85
2023/08/28 08:42:13;;;;;;;5.25;4.28;;;;;;;29.44;87.33;99244.28;5555683;32;34087;-85
2023/08/28 08:45:16;;;;;;;4.82;3.75;;;;;;;29.57;86.30;99229.66;5553079;32;34596;-87
